Latest Weather Observations for Alice Springs Airport

IDD60801

Issued at 4:31 am CST Friday 30 October 2020 (issued every 10 minutes, with the page automatically refreshed every 10 minutes)

About weather observations | Map of weather stations | Latest weather observations for NT | Other Formats
Station Details ID: 015590 Name: ALICE SPRINGS AIRPORT Lat: -23.80 Lon: 133.89 Height: 546.0 m
Data from the previous 72 hours. | See also: Recent months at Alice Springs Airport
Date/Time
CST
Temp
°C
App
Temp
°C
Dew
Point
°C
Rel
Hum
%
Delta-T
°C
Wind Press
QNH
hPa
Press
MSL
hPa
Rain since
9am
mm
Dir  Spd
km/h
Gust
km/h
Spd
kts
Gust
kts
30/04:30am 21.1 15.6 3.8 32 8.5 SE 22 28 12 15 1015.4 1012.7 0.0
30/04:00am 21.6 16.5 4.2 32 8.7 SE 20 28 11 15 1015.1 1012.3 0.0
30/03:30am 22.3 17.4 3.9 30 9.2 SE 19 30 10 16 1014.9 1012.1 0.0
30/03:00am 23.0 17.4 3.5 28 9.7 SE 22 30 12 16 1014.7 1011.9 0.0
30/02:30am 24.0 17.7 3.9 27 10.1 SE 26 35 14 19 1014.7 1011.9 0.0
30/02:00am 24.8 19.7 2.9 24 10.9 SSE 19 28 10 15 1014.7 1011.9 0.0
30/01:30am 25.8 20.6 2.5 22 11.6 SSE 19 32 10 17 1014.7 1011.9 0.0
30/01:00am 26.3 20.9 2.3 21 11.9 SSE 20 32 11 17 1014.8 1012.0 0.0
30/12:30am 26.6 21.4 2.5 21 12.1 SE 19 24 10 13 1015.1 1012.3 0.0
30/12:00am 27.5 22.1 2.6 20 12.6 SSE 20 32 11 17 1015.0 1012.2 0.0
 
Date/Time
CST
Temp
°C
App
Temp
°C
Dew
Point
°C
Rel
Hum
%
Delta-T
°C
Wind Press
QNH
hPa
Press
MSL
hPa
Rain since
9am
mm
Dir  Spd
km/h
Gust
km/h
Spd
kts
Gust
kts
29/11:30pm 28.4 21.9 2.6 19 13.1 SSE 26 35 14 19 1015.1 1012.3 0.0
29/11:00pm 29.2 22.4 3.2 19 13.4 SSE 28 39 15 21 1014.5 1011.7 0.0
29/10:30pm 30.0 22.7 2.3 17 14.1 SSE 30 43 16 23 1013.8 1011.1 0.0
29/10:00pm 30.9 24.2 1.3 15 14.9 SSE 26 37 14 20 1013.7 1011.0 0.0
29/09:30pm 31.6 23.5 -0.1 13 15.7 SSE 32 43 17 23 1013.3 1010.5 0.0
29/09:14pm 32.3 23.6 -0.7 12 16.2 S 35 44 19 24 1013.1 1010.3 0.0
29/09:00pm 33.2 24.8 -2.5 10 17.2 S 32 41 17 22 1012.5 1009.7 0.0
29/08:30pm 30.8 25.4 -4.3 10 16.1 SSW 15 30 8 16 1012.1 1009.2 0.0
29/08:00pm 30.4 26.6 -6.0 9 16.1 WSW 6 7 3 4 1011.5 1008.7 0.0
29/07:30pm 31.9 27.4 -6.4 8 17.1 SSW 9 11 5 6 1011.2 1008.4 0.0
29/07:00pm 33.4 28.7 -5.3 8 17.8 SSW 11 15 6 8 1011.0 1008.2 0.0
29/06:30pm 35.3 29.8 -5.7 7 19.0 SSW 15 19 8 10 1010.8 1008.0 0.0
29/06:00pm 36.1 30.6 -5.1 7 19.4 SSW 15 20 8 11 1010.7 1007.9 0.0
29/05:30pm 36.3 30.6 -7.0 6 19.8 WSW 15 24 8 13 1010.4 1007.5 0.0
29/05:00pm 37.1 30.7 -6.4 6 20.2 SSW 19 28 10 15 1010.6 1007.8 0.0
29/04:30pm 36.4 30.8 -6.9 6 19.8 S 15 26 8 14 1010.7 1007.9 0.0
29/04:00pm 37.1 29.8 -6.4 6 20.2 W 24 41 13 22 1011.0 1008.2 0.0
29/03:30pm 37.5 31.6 -6.1 6 20.4 SW 17 33 9 18 1011.2 1008.4 0.0
29/03:00pm 36.2 29.6 -7.0 6 19.7 WSW 20 33 11 18 1011.7 1008.9 0.0
29/02:30pm 36.8 29.5 -6.6 6 20.0 WSW 24 37 13 20 1012.5 1009.7 0.0
29/02:00pm 36.7 31.5 -6.7 6 20.0 SW 13 20 7 11 1012.9 1010.1 0.0
29/01:35pm 35.6 28.9 -7.5 6 19.4 W 20 46 11 25 1013.4 1010.6 0.0
29/01:30pm 36.5 30.5 -6.8 6 19.9 W 17 30 9 16 1013.4 1010.6 0.0
29/01:05pm 35.1 27.7 -7.8 6 19.2 NNW 24 48 13 26 1013.8 1011.1 0.0
29/01:00pm 35.4 28.9 -7.6 6 19.3 N 19 30 10 16 1014.0 1011.2 0.0
29/12:30pm 34.6 28.5 -8.2 6 18.9 WNW 17 30 9 16 1014.5 1011.7 0.0
29/12:00pm 35.3 28.8 -5.7 7 19.0 W 20 33 11 18 1015.4 1012.7 0.0
29/11:30am 34.3 27.9 -4.6 8 18.2 NNW 20 28 11 15 1015.6 1012.9 0.0
29/11:00am 33.5 27.1 -5.2 8 17.8 NNW 20 28 11 15 1016.3 1013.5 0.0
29/10:30am 31.7 24.5 -5.0 9 16.7 NW 24 35 13 19 1016.8 1014.0 0.0
29/10:00am 30.4 22.9 -4.6 10 15.9 NNW 26 35 14 19 1017.1 1014.4 0.0
29/09:30am 29.7 23.3 -5.1 10 15.6 NNW 20 28 11 15 1017.5 1014.8 0.0
29/09:00am 28.7 22.0 -4.6 11 14.9 NW 22 30 12 16 1017.7 1015.0 0.0
29/08:30am 27.2 20.5 -4.6 12 14.1 NNW 22 28 12 15 1017.5 1014.8 0.0
29/08:00am 26.3 22.5 -5.3 12 13.7 WNW 6 17 3 9 1017.3 1014.6 0.0
29/07:30am 22.1 18.2 -4.9 16 11.3 W 7 9 4 5 1017.3 1014.6 0.0
29/07:00am 19.7 15.8 -4.5 19 10.0 WSW 7 9 4 5 1016.9 1014.1 0.0
29/06:30am 16.4 13.9 -4.2 24 8.3 CALM 0 0 0 0 1016.6 1013.8 0.0
29/06:00am 14.6 12.0 -4.7 26 7.6 CALM 0 0 0 0 1016.4 1013.6 0.0
29/05:30am 14.2 11.5 -5.5 25 7.6 CALM 0 0 0 0 1016.2 1013.4 0.0
29/05:00am 14.7 10.9 -5.6 24 7.8 NNW 6 7 3 4 1016.0 1013.2 0.0
29/04:30am 14.5 10.2 -5.3 25 7.6 WNW 9 11 5 6 1016.1 1013.3 0.0
29/04:00am 14.1 9.7 -5.6 25 7.5 NW 9 11 5 6 1015.8 1013.1 0.0
29/03:30am 13.8 9.8 -5.9 25 7.5 WSW 7 9 4 5 1016.1 1013.3 0.0
29/03:00am 15.1 12.5 -4.8 25 7.8 CALM 0 0 0 0 1016.0 1013.2 0.0
29/02:30am 14.8 11.1 -4.5 26 7.6 NW 6 9 3 5 1016.1 1013.3 0.0
29/02:00am 15.3 12.6 -5.7 23 8.1 CALM 0 0 0 0 1016.4 1013.6 0.0
29/01:30am 15.5 12.8 -5.5 23 8.2 CALM 0 0 0 0 1016.6 1013.8 0.0
29/01:00am 16.7 14.0 -5.7 21 8.8 CALM 0 0 0 0 1017.0 1014.3 0.0
29/12:30am 17.3 13.3 -5.2 21 9.0 NE 7 7 4 4 1017.2 1014.5 0.0
29/12:00am 17.7 13.3 -6.2 19 9.4 E 9 9 5 5 1017.5 1014.8 0.0
 
Date/Time
CST
Temp
°C
App
Temp
°C
Dew
Point
°C
Rel
Hum
%
Delta-T
°C
Wind Press
QNH
hPa
Press
MSL
hPa
Rain since
9am
mm
Dir  Spd
km/h
Gust
km/h
Spd
kts
Gust
kts
28/11:30pm 18.5 14.4 -6.2 18 9.8 ENE 7 7 4 4 1017.6 1014.9 0.0
28/11:00pm 20.7 16.7 -6.0 16 10.9 ENE 7 9 4 5 1017.9 1015.1 0.0
28/10:30pm 20.5 16.5 -6.1 16 10.7 ENE 7 9 4 5 1017.9 1015.1 0.0
28/10:00pm 22.0 17.4 -7.6 13 11.8 E 9 11 5 6 1017.9 1015.1 0.0
28/09:30pm 23.4 18.2 -6.5 13 12.3 ESE 13 13 7 7 1017.7 1015.0 0.0
28/09:00pm 24.4 19.0 -7.9 11 13.1 E 13 20 7 11 1017.5 1014.8 0.0
28/08:30pm 25.0 20.1 -7.5 11 13.4 ESE 11 13 6 7 1017.2 1014.5 0.0
28/08:00pm 26.3 21.0 -7.7 10 14.1 ESE 13 15 7 8 1016.8 1014.0 0.0
28/07:30pm 27.3 22.0 -6.9 10 14.5 ESE 13 15 7 8 1016.4 1013.6 0.0
28/07:00pm 29.1 23.7 -8.5 8 15.8 SE 13 17 7 9 1016.0 1013.2 0.0
28/06:30pm 30.6 25.3 -7.4 8 16.5 SE 13 19 7 10 1015.6 1012.9 0.0
28/06:00pm 31.5 25.7 -8.4 7 17.1 SE 15 30 8 16 1015.4 1012.7 0.0
28/05:30pm 31.7 25.6 -8.3 7 17.2 SSE 17 24 9 13 1015.2 1012.4 0.0
28/05:00pm 32.0 25.9 -8.1 7 17.4 SE 17 22 9 12 1015.0 1012.2 0.0
28/04:30pm 31.8 26.2 -6.5 8 17.0 SSW 15 26 8 14 1015.2 1012.4 0.0
28/04:00pm 31.9 26.3 -6.4 8 17.1 S 15 28 8 15 1015.2 1012.4 0.0
28/03:30pm 31.8 27.0 -6.5 8 17.0 SSE 11 26 6 14 1015.4 1012.7 0.0
28/03:00pm 32.3 25.0 -6.1 8 17.2 S 24 32 13 17 1015.5 1012.8 0.0
28/02:30pm 32.0 26.2 -4.8 9 16.9 SSE 17 26 9 14 1015.7 1013.0 0.0
28/02:00pm 31.9 25.5 -4.9 9 16.8 S 20 35 11 19 1016.2 1013.4 0.0
28/01:30pm 31.6 25.8 -5.1 9 16.7 SSE 17 37 9 20 1016.8 1014.0 0.0
28/01:00pm 31.2 25.7 -5.4 9 16.5 SSE 15 24 8 13 1017.1 1014.4 0.0
28/12:43pm 31.4 26.3 -5.2 9 16.6 S 13 30 7 16 1017.5 1014.8 0.0
28/12:30pm 31.6 27.8 -3.7 10 16.4 NE 7 17 4 9 1017.6 1014.9 0.0
28/12:00pm 31.0 26.5 -2.9 11 15.9 S 11 19 6 10 1018.0 1015.2 0.0
28/11:30am 29.7 25.1 -3.9 11 15.3 NW 11 13 6 7 1018.6 1015.8 0.0
28/11:00am 29.1 25.0 -3.2 12 14.9 ENE 9 11 5 6 1019.1 1016.4 0.0
28/10:30am 28.1 23.9 -3.9 12 14.4 E 9 17 5 9 1019.5 1016.8 0.0
28/10:00am 27.5 23.2 -4.4 12 14.2 NE 9 15 5 8 1019.7 1017.0 0.0
28/09:30am 26.2 22.1 -3.4 14 13.2 N 9 15 5 8 1020.0 1017.2 0.0
28/09:00am 24.1 19.4 -5.0 14 12.4 NE 11 15 6 8 1020.0 1017.2 0.0
28/08:30am 22.6 17.5 -5.3 15 11.7 NE 13 19 7 10 1019.9 1017.1 0.0
28/08:00am 21.4 16.0 -4.6 17 10.9 NE 15 20 8 11 1019.5 1016.8 0.0
28/07:30am 19.9 15.3 -4.4 19 10.1 NE 11 15 6 8 1019.2 1016.5 0.0
28/07:00am 17.5 13.4 -2.7 25 8.5 E 9 11 5 6 1018.9 1016.2 0.0
28/06:30am 13.4 9.7 -2.9 32 6.6 E 7 9 4 5 1018.6 1015.8 0.0
28/06:06am 11.7 7.5 -3.6 34 6.0 E 9 11 5 6 1018.4 1015.6 0.0
28/06:00am 12.0 7.9 -3.0 35 5.9 E 9 11 5 6 1018.3 1015.5 0.0
28/05:30am 12.0 7.5 -3.4 34 6.0 SE 11 13 6 7 1018.1 1015.3 0.0
28/05:00am 12.4 8.6 -3.4 33 6.2 SE 7 7 4 4 1017.6 1014.9 0.0
28/04:50am 12.7 9.2 -3.1 33 6.3 SE 6 7 3 4 1017.5 1014.8 0.0
28/04:30am 12.9 10.5 -3.0 33 6.3 CALM 0 0 0 0 1017.3 1014.6 0.0
28/04:00am 13.6 11.2 -2.8 32 6.6 CALM 0 0 0 0 1017.2 1014.5 0.0
28/03:30am 13.3 10.9 -3.0 32 6.5 CALM 0 0 0 0 1017.3 1014.6 0.0
28/03:00am 14.0 11.6 -3.3 30 6.9 CALM 0 0 0 0 1017.1 1014.4 0.0
28/02:30am 15.1 11.5 -2.3 30 7.2 E 7 7 4 4 1017.0 1014.3 0.0
28/02:00am 16.6 12.9 -3.0 26 8.1 E 7 9 4 5 1017.1 1014.4 0.0
28/01:30am 16.4 12.2 -3.7 25 8.2 E 9 11 5 6 1017.2 1014.5 0.0
28/01:00am 17.5 13.4 -3.3 24 8.7 ENE 9 11 5 6 1017.4 1014.7 0.0
28/12:30am 18.1 13.6 -3.3 23 8.9 ENE 11 13 6 7 1017.7 1015.0 0.0
28/12:00am 19.0 14.5 -3.2 22 9.4 ENE 11 13 6 7 1017.9 1015.1 0.0
 
Date/Time
CST
Temp
°C
App
Temp
°C
Dew
Point
°C
Rel
Hum
%
Delta-T
°C
Wind Press
QNH
hPa
Press
MSL
hPa
Rain since
9am
mm
Dir  Spd
km/h
Gust
km/h
Spd
kts
Gust
kts
27/11:30pm 18.3 13.8 -3.2 23 9.0 ENE 11 13 6 7 1018.0 1015.2 0.0
27/11:00pm 18.8 14.7 -3.3 22 9.3 ENE 9 11 5 6 1018.1 1015.3 0.0
27/10:30pm 19.2 15.4 -3.6 21 9.6 ENE 7 9 4 5 1017.9 1015.1 0.0
27/10:00pm 20.1 15.5 -4.2 19 10.2 E 11 11 6 6 1017.7 1015.0 0.0
27/09:30pm 21.3 16.3 -4.0 18 10.7 ESE 13 15 7 8 1017.6 1014.9 0.0
27/09:00pm 22.8 17.8 -4.3 16 11.6 ESE 13 15 7 8 1017.4 1014.7 0.0
27/08:30pm 23.1 18.1 -4.1 16 11.7 ENE 13 15 7 8 1017.1 1014.4 0.0
27/08:00pm 24.3 18.6 -4.0 15 12.4 E 17 19 9 10 1016.7 1013.9 0.0
27/07:30pm 25.6 20.3 -3.8 14 13.0 ESE 15 19 8 10 1016.0 1013.2 0.0
27/07:00pm 26.4 20.6 -4.2 13 13.6 ESE 17 22 9 12 1015.5 1012.8 0.0
27/06:30pm 27.4 21.2 -4.5 12 14.2 SE 19 30 10 16 1015.1 1012.3 0.0
27/06:00pm 28.3 22.5 -4.9 11 14.7 SE 17 24 9 13 1014.7 1011.9 0.0
27/05:30pm 29.0 23.6 -4.4 11 15.1 SE 15 20 8 11 1014.5 1011.7 0.0
27/05:00pm 29.1 23.6 -5.6 10 15.3 SE 15 24 8 13 1014.3 1011.5 0.0
27/04:30pm 29.2 24.1 -5.5 10 15.4 SSE 13 28 7 15 1014.2 1011.4 0.0
27/04:00pm 29.2 23.8 -4.3 11 15.1 SE 15 26 8 14 1014.1 1011.3 0.0
27/03:30pm 29.0 24.0 -4.4 11 15.1 E 13 20 7 11 1014.2 1011.4 0.0
27/03:00pm 29.1 24.6 -3.2 12 14.9 ESE 11 19 6 10 1014.7 1011.9 0.0
27/02:30pm 28.1 23.1 -3.9 12 14.4 WSW 13 24 7 13 1015.0 1012.2 0.0
27/02:00pm 28.7 24.2 -3.5 12 14.7 S 11 24 6 13 1015.3 1012.5 0.0
27/01:30pm 28.0 23.0 -4.0 12 14.4 S 13 28 7 15 1016.0 1013.2 0.0
27/01:00pm 27.6 22.8 -2.3 14 13.8 NE 13 19 7 10 1016.5 1013.7 0.0
27/12:30pm 26.5 21.6 -3.1 14 13.4 SE 13 26 7 14 1017.0 1014.3 0.0
27/12:00pm 26.7 22.0 -2.1 15 13.3 S 13 19 7 10 1017.4 1014.7 0.0
27/11:30am 26.5 21.6 -0.5 17 12.8 ESE 15 22 8 12 1017.7 1015.0 0.0
27/11:00am 24.6 20.0 -1.3 18 11.9 ESE 13 22 7 12 1018.1 1015.3 0.0
27/10:30am 24.8 20.2 -1.1 18 12.0 E 13 19 7 10 1018.4 1015.6 0.0
27/10:00am 23.3 18.6 -1.6 19 11.3 E 13 19 7 10 1018.7 1016.0 0.0
27/09:30am 22.1 16.6 -1.9 20 10.7 ENE 17 22 9 12 1018.7 1016.0 0.0
27/09:00am 21.3 15.4 -1.9 21 10.3 ENE 19 24 10 13 1018.8 1016.1 0.0
27/08:30am 20.3 14.4 -2.1 22 9.8 ENE 19 28 10 15 1018.7 1016.0 0.0
27/08:00am 18.9 13.4 -2.1 24 9.1 ENE 17 22 9 12 1018.4 1015.6 0.0
27/07:30am 17.3 12.5 -2.4 26 8.3 E 13 17 7 9 1018.4 1015.6 0.0
27/07:00am 15.7 11.4 -1.4 31 7.3 ESE 11 13 6 7 1018.1 1015.3 0.0
27/06:30am 13.5 9.7 -0.9 37 6.1 ESE 9 11 5 6 1017.7 1015.0 0.0
27/06:00am 12.2 8.8 -1.7 38 5.7 ENE 6 7 3 4 1017.4 1014.7 0.0
27/05:30am 12.7 9.2 -1.6 37 5.9 E 7 9 4 5 1017.0 1014.3 0.0
27/05:00am 12.2 8.3 -1.7 38 5.7 ENE 9 11 5 6 1016.5 1013.7 0.0

Other formats

Comma delimited format used in spreadsheet applications
http://www.bom.gov.au/fwo/IDD60801/IDD60801.94326.axf

JavaScript Object Notation format (JSON) in row-major order
http://www.bom.gov.au/fwo/IDD60801/IDD60801.94326.json

Data quality

Most of these data are generated automatically and are frequently updated. Quality checks on data are not normally performed. It is possible for incorrect values to appear. Refer to information at About Latest Weather Observations and please check the disclaimer before using these data.